createdAt,value
2019-04-10T00:00:06.464Z,1006.57
2019-04-10T00:01:08.894Z,1006.59
2019-04-10T00:02:05.708Z,1006.62
2019-04-10T00:03:06.179Z,1006.64
2019-04-10T00:04:05.694Z,1006.59
2019-04-10T00:05:05.588Z,1006.56
2019-04-10T00:06:06.664Z,1006.59
2019-04-10T00:07:12.749Z,1006.63
2019-04-10T00:08:06.536Z,1006.60
2019-04-10T00:09:06.403Z,1006.59
2019-04-10T00:10:05.633Z,1006.57
2019-04-10T00:11:05.533Z,1006.62
2019-04-10T00:12:05.533Z,1006.58
2019-04-10T00:13:06.566Z,1006.58
2019-04-10T00:14:05.469Z,1006.57
2019-04-10T00:15:05.566Z,1006.61
2019-04-10T00:16:05.656Z,1006.63
2019-04-10T00:17:05.511Z,1006.62
2019-04-10T00:18:05.463Z,1006.62
2019-04-10T00:19:06.479Z,1006.60
2019-04-10T00:20:05.409Z,1006.56
2019-04-10T00:21:05.505Z,1006.62
2019-04-10T00:22:06.298Z,1006.62
2019-04-10T00:23:05.440Z,1006.62
2019-04-10T00:24:05.984Z,1006.64
2019-04-10T00:25:05.423Z,1006.70
2019-04-10T00:26:05.541Z,1006.71
2019-04-10T00:27:06.118Z,1006.65
2019-04-10T00:28:05.385Z,1006.60
2019-04-10T00:29:05.763Z,1006.65
2019-04-10T00:30:05.296Z,1006.59
2019-04-10T00:31:05.390Z,1006.62
2019-04-10T00:32:05.718Z,1006.67
2019-04-10T00:33:05.421Z,1006.69
2019-04-10T00:34:05.416Z,1006.67
2019-04-10T00:35:06.385Z,1006.64
2019-04-10T00:36:05.231Z,1006.63
2019-04-10T00:37:05.847Z,1006.61
2019-04-10T00:38:05.238Z,1006.67
2019-04-10T00:39:06.341Z,1006.58
2019-04-10T00:40:05.192Z,1006.72
2019-04-10T00:41:06.019Z,1006.64
2019-04-10T00:42:05.161Z,1006.65
2019-04-10T00:43:05.273Z,1006.65
2019-04-10T00:44:05.770Z,1006.67
2019-04-10T00:45:05.160Z,1006.73
2019-04-10T00:46:06.087Z,1006.64
2019-04-10T00:47:05.177Z,1006.67
2019-04-10T00:48:05.772Z,1006.70
2019-04-10T00:49:05.227Z,1006.70
2019-04-10T00:50:05.078Z,1006.73
2019-04-10T00:51:05.102Z,1006.73
2019-04-10T00:52:05.989Z,1006.71
2019-04-10T00:53:05.144Z,1006.73
2019-04-10T00:54:05.669Z,1006.67
2019-04-10T00:55:05.735Z,1006.70
2019-04-10T00:56:05.120Z,1006.71
2019-04-10T00:57:05.249Z,1006.77
2019-04-10T00:58:05.821Z,1006.69
2019-04-10T00:59:05.997Z,1006.77
2019-04-10T01:00:04.969Z,1006.79
2019-04-10T01:01:05.628Z,1006.77
2019-04-10T01:02:04.951Z,1006.73
2019-04-10T01:03:05.243Z,1006.71
2019-04-10T01:04:04.948Z,1006.74
2019-04-10T01:05:05.049Z,1006.75
2019-04-10T01:06:05.902Z,1006.72
2019-04-10T01:07:05.011Z,1006.69
2019-04-10T01:08:04.877Z,1006.78
2019-04-10T01:09:04.944Z,1006.68
2019-04-10T01:10:05.970Z,1006.76
2019-04-10T01:11:04.930Z,1006.76
2019-04-10T01:12:05.763Z,1006.79
2019-04-10T01:13:04.986Z,1006.77
2019-04-10T01:14:05.424Z,1006.82
2019-04-10T01:15:04.881Z,1006.78
2019-04-10T01:16:05.035Z,1006.75
2019-04-10T01:17:04.866Z,1006.71
2019-04-10T01:18:04.777Z,1006.79
2019-04-10T01:19:05.759Z,1006.76
2019-04-10T01:20:05.087Z,1006.74
2019-04-10T01:21:04.798Z,1006.70
2019-04-10T01:22:04.722Z,1006.71
2019-04-10T01:23:05.782Z,1006.77
2019-04-10T01:24:05.719Z,1006.75
2019-04-10T01:25:04.719Z,1006.68
2019-04-10T01:26:05.219Z,1006.72
2019-04-10T01:27:04.731Z,1006.76
2019-04-10T01:28:04.739Z,1006.70
2019-04-10T01:29:05.148Z,1006.72
2019-04-10T01:30:04.662Z,1006.73
2019-04-10T01:31:04.660Z,1006.74
2019-04-10T01:32:05.629Z,1006.71
2019-04-10T01:33:04.680Z,1006.75
2019-04-10T01:34:05.357Z,1006.75
2019-04-10T01:35:05.706Z,1006.75
2019-04-10T01:36:04.826Z,1006.79
2019-04-10T01:37:04.851Z,1006.76
2019-04-10T01:38:06.126Z,1006.81
2019-04-10T01:39:04.617Z,1006.75
2019-04-10T01:40:04.582Z,1006.72
2019-04-10T01:41:05.678Z,1006.72
2019-04-10T01:42:04.511Z,1006.75
2019-04-10T01:43:09.881Z,1006.80
2019-04-10T01:44:05.702Z,1006.75
2019-04-10T01:45:04.939Z,1006.77
2019-04-10T01:46:04.449Z,1006.78
2019-04-10T01:47:04.723Z,1006.75
2019-04-10T01:48:04.466Z,1006.73
2019-04-10T01:49:05.159Z,1006.77
2019-04-10T01:50:04.600Z,1006.74
2019-04-10T01:51:04.496Z,1006.75
2019-04-10T01:52:04.825Z,1006.80
2019-04-10T01:53:04.407Z,1006.74
2019-04-10T01:54:04.369Z,1006.72
2019-04-10T01:55:17.034Z,1006.70
2019-04-10T01:56:05.455Z,1006.73
2019-04-10T01:57:04.343Z,1006.72
2019-04-10T01:58:05.118Z,1006.68
2019-04-10T01:59:04.311Z,1006.72
2019-04-10T02:00:04.676Z,1006.73
2019-04-10T02:01:04.291Z,1006.71
2019-04-10T02:02:05.163Z,1006.68
2019-04-10T02:03:04.287Z,1006.71
2019-04-10T02:04:04.641Z,1006.78
2019-04-10T02:05:04.278Z,1006.74
2019-04-10T02:06:05.159Z,1006.77
2019-04-10T02:07:04.217Z,1006.70
2019-04-10T02:08:09.093Z,1006.78
2019-04-10T02:09:05.211Z,1006.71
2019-04-10T02:10:04.316Z,1006.79
2019-04-10T02:11:04.846Z,1006.72
2019-04-10T02:12:04.229Z,1006.74
2019-04-10T02:13:05.301Z,1006.74
2019-04-10T02:14:04.248Z,1006.80
2019-04-10T02:15:04.845Z,1006.72
2019-04-10T02:16:04.185Z,1006.77
2019-04-10T02:17:04.304Z,1006.78
2019-04-10T02:18:04.171Z,1006.79
2019-04-10T02:19:04.093Z,1006.87
2019-04-10T02:20:04.937Z,1006.78
2019-04-10T02:21:04.313Z,1006.79
2019-04-10T02:22:04.420Z,1006.82
2019-04-10T02:23:04.045Z,1006.81
2019-04-10T02:24:05.021Z,1006.87
2019-04-10T02:25:04.023Z,1006.81
2019-04-10T02:26:05.110Z,1006.81
2019-04-10T02:27:04.007Z,1006.85
2019-04-10T02:28:04.898Z,1006.81
2019-04-10T02:29:03.975Z,1006.87
2019-04-10T02:30:05.196Z,1006.83
2019-04-10T02:31:04.818Z,1006.86
2019-04-10T02:32:04.329Z,1006.81
2019-04-10T02:33:04.334Z,1006.82
2019-04-10T02:34:04.844Z,1006.80
2019-04-10T02:35:05.802Z,1006.84
2019-04-10T02:36:05.485Z,1006.85
2019-04-10T02:37:03.888Z,1006.83
2019-04-10T02:38:24.543Z,1006.80
2019-04-10T02:39:15.217Z,1006.85
2019-04-10T02:40:05.687Z,1006.85
2019-04-10T02:41:05.711Z,1006.81
2019-04-10T02:42:03.874Z,1006.83
2019-04-10T02:43:05.719Z,1006.74
2019-04-10T02:44:04.849Z,1006.84
2019-04-10T02:45:03.839Z,1006.80
2019-04-10T02:46:04.149Z,1006.84
2019-04-10T02:47:04.409Z,1006.84
2019-04-10T02:48:04.488Z,1006.85
2019-04-10T02:49:04.311Z,1006.81
2019-04-10T02:50:06.075Z,1006.80
2019-04-10T02:51:05.468Z,1006.82
2019-04-10T02:52:04.074Z,1006.85
2019-04-10T02:53:05.352Z,1006.84
2019-04-10T02:54:05.017Z,1006.86
2019-04-10T02:55:03.986Z,1006.88
2019-04-10T02:56:05.258Z,1006.88
2019-04-10T02:57:05.342Z,1006.88
2019-04-10T02:58:03.654Z,1006.82
2019-04-10T02:59:05.007Z,1006.87
2019-04-10T03:00:05.209Z,1006.91
2019-04-10T03:01:03.681Z,1006.79
2019-04-10T03:02:04.274Z,1006.84
2019-04-10T03:03:03.818Z,1006.87
2019-04-10T03:04:03.581Z,1006.87
2019-04-10T03:05:04.615Z,1006.81
2019-04-10T03:06:04.949Z,1006.84
2019-04-10T03:07:04.271Z,1006.82
2019-04-10T03:08:04.878Z,1006.83
2019-04-10T03:09:24.828Z,1006.88
2019-04-10T03:10:15.202Z,1006.87
2019-04-10T03:11:08.376Z,1006.89
2019-04-10T03:12:06.118Z,1006.88
2019-04-10T03:13:04.711Z,1006.85
2019-04-10T03:14:04.550Z,1006.85
2019-04-10T03:15:05.275Z,1006.88
2019-04-10T03:16:03.549Z,1006.84
2019-04-10T03:17:03.849Z,1006.86
2019-04-10T03:18:04.290Z,1006.87
2019-04-10T03:19:03.423Z,1006.92
2019-04-10T03:20:03.480Z,1006.90
2019-04-10T03:21:03.411Z,1006.90
2019-04-10T03:22:03.902Z,1006.95
2019-04-10T03:23:03.426Z,1006.96
2019-04-10T03:24:04.216Z,1006.95
2019-04-10T03:25:04.428Z,1006.92
2019-04-10T03:26:03.573Z,1006.93
2019-04-10T03:27:03.779Z,1006.92
2019-04-10T03:28:03.423Z,1006.90
2019-04-10T03:29:03.430Z,1006.82
2019-04-10T03:30:05.035Z,1006.86
2019-04-10T03:31:05.296Z,1006.89
2019-04-10T03:32:04.583Z,1006.86
2019-04-10T03:33:06.704Z,1006.90
2019-04-10T03:34:08.148Z,1006.80
2019-04-10T03:35:03.254Z,1006.79
2019-04-10T03:36:03.319Z,1006.88
2019-04-10T03:37:04.278Z,1006.91
2019-04-10T03:38:03.321Z,1006.90
2019-04-10T03:39:06.027Z,1006.84
2019-04-10T03:40:03.321Z,1006.86
2019-04-10T03:41:04.004Z,1006.87
2019-04-10T03:42:04.297Z,1006.89
2019-04-10T03:43:03.536Z,1006.83
2019-04-10T03:44:03.233Z,1006.86
2019-04-10T03:45:03.319Z,1006.87
2019-04-10T03:46:03.310Z,1006.87
2019-04-10T03:47:03.115Z,1006.84
2019-04-10T03:48:04.804Z,1006.83
2019-04-10T03:49:03.225Z,1006.89
2019-04-10T03:50:03.181Z,1006.86
2019-04-10T03:51:03.956Z,1006.82
2019-04-10T03:52:03.207Z,1006.84
2019-04-10T03:53:03.087Z,1006.84
2019-04-10T03:54:03.118Z,1006.88
2019-04-10T03:55:03.023Z,1006.87
2019-04-10T03:56:03.261Z,1006.89
2019-04-10T03:57:02.999Z,1006.88
2019-04-10T03:58:03.057Z,1006.88
2019-04-10T03:59:04.090Z,1006.90
2019-04-10T04:00:03.682Z,1006.92
2019-04-10T04:01:02.961Z,1006.87
2019-04-10T04:02:03.197Z,1006.91
2019-04-10T04:03:03.008Z,1006.97
2019-04-10T04:04:02.961Z,1006.99
2019-04-10T04:05:02.917Z,1006.96
2019-04-10T04:06:03.631Z,1006.96
2019-04-10T04:07:02.895Z,1006.93
2019-04-10T04:08:04.020Z,1006.97
2019-04-10T04:09:08.976Z,1006.93
2019-04-10T04:10:04.380Z,1006.95
2019-04-10T04:11:02.912Z,1006.94
2019-04-10T04:12:02.843Z,1006.90
2019-04-10T04:13:05.712Z,1006.94
2019-04-10T04:14:02.845Z,1006.95
2019-04-10T04:15:03.669Z,1006.96
2019-04-10T04:16:02.803Z,1006.96
2019-04-10T04:17:03.964Z,1006.88
2019-04-10T04:18:02.779Z,1006.97
2019-04-10T04:19:03.922Z,1006.96
2019-04-10T04:20:02.763Z,1006.92
2019-04-10T04:21:03.489Z,1006.99
2019-04-10T04:22:02.733Z,1006.96
2019-04-10T04:23:03.492Z,1006.96
2019-04-10T04:24:03.612Z,1006.97
2019-04-10T04:25:02.796Z,1006.97
2019-04-10T04:26:03.063Z,1006.99
2019-04-10T04:27:02.840Z,1007.01
2019-04-10T04:28:02.680Z,1006.97
2019-04-10T04:29:02.765Z,1007.01
2019-04-10T04:30:02.685Z,1007.00
2019-04-10T04:31:03.127Z,1007.04
2019-04-10T04:32:02.627Z,1007.03
2019-04-10T04:33:02.657Z,1007.03
2019-04-10T04:34:02.637Z,1007.02
2019-04-10T04:35:02.672Z,1007.05
2019-04-10T04:36:02.581Z,1007.08
2019-04-10T04:37:02.687Z,1007.10
2019-04-10T04:38:02.627Z,1007.14
2019-04-10T04:39:13.546Z,1007.13
2019-04-10T04:40:03.562Z,1007.10
2019-04-10T04:41:02.603Z,1007.13
2019-04-10T04:42:03.052Z,1007.14
2019-04-10T04:43:03.636Z,1007.11
2019-04-10T04:44:02.504Z,1007.18
2019-04-10T04:45:03.090Z,1007.12
2019-04-10T04:46:03.310Z,1007.14
2019-04-10T04:47:03.389Z,1007.20
2019-04-10T04:48:02.453Z,1007.17
2019-04-10T04:49:02.553Z,1007.18
2019-04-10T04:50:03.606Z,1007.21
2019-04-10T04:51:03.271Z,1007.21
2019-04-10T04:52:02.619Z,1007.22
2019-04-10T04:53:02.482Z,1007.24
2019-04-10T04:54:02.389Z,1007.20
2019-04-10T04:55:02.498Z,1007.21
2019-04-10T04:56:02.456Z,1007.31
2019-04-10T04:57:02.452Z,1007.30
2019-04-10T04:58:02.341Z,1007.36
2019-04-10T04:59:02.424Z,1007.35
2019-04-10T05:00:03.232Z,1007.36
2019-04-10T05:01:02.454Z,1007.34
2019-04-10T05:02:03.381Z,1007.40
2019-04-10T05:03:02.348Z,1007.40
2019-04-10T05:04:02.487Z,1007.38
2019-04-10T05:05:02.546Z,1007.43
2019-04-10T05:06:02.361Z,1007.45
2019-04-10T05:07:02.381Z,1007.43
2019-04-10T05:08:04.107Z,1007.48
2019-04-10T05:09:02.810Z,1007.48
2019-04-10T05:10:02.294Z,1007.52
2019-04-10T05:11:02.337Z,1007.47
2019-04-10T05:12:02.928Z,1007.49
2019-04-10T05:13:02.212Z,1007.59
2019-04-10T05:14:02.745Z,1007.57
2019-04-10T05:15:02.644Z,1007.58
2019-04-10T05:16:02.659Z,1007.63
2019-04-10T05:18:04.065Z,1007.62
2019-04-10T05:19:02.147Z,1007.64
2019-04-10T05:20:02.956Z,1007.70
2019-04-10T05:21:03.054Z,1007.72
2019-04-10T05:22:02.092Z,1007.75
2019-04-10T05:23:02.293Z,1007.68
2019-04-10T05:24:03.169Z,1007.73
2019-04-10T05:25:03.054Z,1007.74
2019-04-10T05:26:02.513Z,1007.75
2019-04-10T05:27:02.102Z,1007.82
2019-04-10T05:28:02.032Z,1007.78
2019-04-10T05:30:04.068Z,1007.79
2019-04-10T05:32:03.102Z,1007.87
2019-04-10T05:33:02.068Z,1007.81
2019-04-10T05:34:03.009Z,1007.84
2019-04-10T05:35:05.120Z,1007.84
2019-04-10T05:36:01.932Z,1007.83
2019-04-10T05:37:03.048Z,1007.86
2019-04-10T05:38:02.541Z,1007.86
2019-04-10T05:39:02.209Z,1007.91
2019-04-10T05:40:01.891Z,1007.95
2019-04-10T05:41:01.994Z,1007.93
2019-04-10T05:42:02.690Z,1007.92
2019-04-10T05:43:01.913Z,1007.96
2019-04-10T05:44:02.805Z,1007.98
2019-04-10T05:45:03.041Z,1008.01
2019-04-10T05:46:02.825Z,1008.02
2019-04-10T05:47:01.984Z,1008.07
2019-04-10T05:48:01.812Z,1007.98
2019-04-10T05:49:01.855Z,1008.01
2019-04-10T05:50:02.075Z,1008.00
2019-04-10T05:51:04.818Z,1008.02
2019-04-10T05:52:02.795Z,1008.02
2019-04-10T05:53:02.322Z,1007.98
2019-04-10T05:54:02.277Z,1008.01
2019-04-10T05:55:02.324Z,1008.02
2019-04-10T05:56:01.744Z,1008.02
2019-04-10T05:57:01.802Z,1008.07
2019-04-10T05:58:01.794Z,1008.06
2019-04-10T05:59:01.714Z,1008.08
2019-04-10T06:00:02.727Z,1008.12
2019-04-10T06:01:01.726Z,1008.13
2019-04-10T06:02:01.696Z,1008.08
2019-04-10T06:03:01.744Z,1008.08
2019-04-10T06:04:01.638Z,1008.10
2019-04-10T06:05:02.334Z,1008.14
2019-04-10T06:06:01.605Z,1008.15
2019-04-10T06:07:01.668Z,1008.16
2019-04-10T06:08:01.626Z,1008.14
2019-04-10T06:09:02.547Z,1008.19
2019-04-10T06:10:05.138Z,1008.18
2019-04-10T06:11:02.622Z,1008.13
2019-04-10T06:12:03.471Z,1008.16
2019-04-10T06:13:02.645Z,1008.19
2019-04-10T06:14:01.523Z,1008.20
2019-04-10T06:15:02.456Z,1008.29
2019-04-10T06:16:01.633Z,1008.30
2019-04-10T06:17:04.089Z,1008.23
2019-04-10T06:18:01.517Z,1008.29
2019-04-10T06:19:01.874Z,1008.28
2019-04-10T06:20:01.697Z,1008.34
2019-04-10T06:21:02.886Z,1008.40
2019-04-10T06:22:01.443Z,1008.37
2019-04-10T06:23:01.501Z,1008.36
2019-04-10T06:24:01.416Z,1008.32
2019-04-10T06:25:03.660Z,1008.33
2019-04-10T06:26:03.363Z,1008.42
2019-04-10T06:27:01.899Z,1008.39
2019-04-10T06:28:01.402Z,1008.37
2019-04-10T06:29:02.377Z,1008.39
2019-04-10T06:30:01.875Z,1008.36
2019-04-10T06:31:01.425Z,1008.36
2019-04-10T06:32:01.348Z,1008.44
2019-04-10T06:33:02.202Z,1008.39
2019-04-10T06:34:01.431Z,1008.34
2019-04-10T06:35:01.942Z,1008.35
2019-04-10T06:36:01.283Z,1008.40
2019-04-10T06:37:01.921Z,1008.37
2019-04-10T06:38:02.315Z,1008.38
2019-04-10T06:39:02.559Z,1008.38
2019-04-10T06:40:10.713Z,1008.45
2019-04-10T06:41:02.270Z,1008.31
2019-04-10T06:42:02.539Z,1008.39
2019-04-10T06:43:01.252Z,1008.42
2019-04-10T06:44:01.516Z,1008.37
2019-04-10T06:45:01.212Z,1008.34
2019-04-10T06:46:01.217Z,1008.40
2019-04-10T06:47:02.151Z,1008.43
2019-04-10T06:48:01.264Z,1008.38
2019-04-10T06:49:01.185Z,1008.32
2019-04-10T06:50:02.452Z,1008.40
2019-04-10T06:51:02.071Z,1008.41
2019-04-10T06:52:01.901Z,1008.39
2019-04-10T06:53:01.172Z,1008.39
2019-04-10T06:54:06.941Z,1008.43
2019-04-10T06:55:03.015Z,1008.42
2019-04-10T06:56:01.187Z,1008.38
2019-04-10T06:57:01.057Z,1008.35
2019-04-10T06:58:01.117Z,1008.43
2019-04-10T06:59:01.085Z,1008.39
2019-04-10T07:00:02.272Z,1008.50
2019-04-10T07:01:01.813Z,1008.44
2019-04-10T07:02:14.145Z,1008.49
2019-04-10T07:03:02.985Z,1008.54
2019-04-10T07:04:05.135Z,1008.50
2019-04-10T07:05:05.819Z,1008.47
2019-04-10T07:06:09.734Z,1008.44
2019-04-10T07:07:08.937Z,1008.49
2019-04-10T07:08:10.921Z,1008.53
2019-04-10T07:09:01.988Z,1008.51
2019-04-10T07:10:02.240Z,1008.47
2019-04-10T07:11:05.941Z,1008.51
2019-04-10T07:12:03.414Z,1008.51
2019-04-10T07:13:04.262Z,1008.47
2019-04-10T07:14:01.899Z,1008.54
2019-04-10T07:15:02.189Z,1008.49
2019-04-10T07:16:02.067Z,1008.49
2019-04-10T07:17:05.400Z,1008.49
2019-04-10T07:18:02.972Z,1008.51
2019-04-10T07:19:04.231Z,1008.55
2019-04-10T07:20:02.027Z,1008.52
2019-04-10T07:21:01.974Z,1008.52
2019-04-10T07:22:01.932Z,1008.51
2019-04-10T07:23:00.861Z,1008.54
2019-04-10T07:24:04.881Z,1008.53
2019-04-10T07:25:02.872Z,1008.49
2019-04-10T07:26:01.746Z,1008.51
2019-04-10T07:27:03.389Z,1008.47
2019-04-10T07:28:01.444Z,1008.45
2019-04-10T07:29:00.941Z,1008.53
2019-04-10T07:30:01.632Z,1008.52
2019-04-10T07:31:04.721Z,1008.55
2019-04-10T07:32:04.793Z,1008.55
2019-04-10T07:33:01.759Z,1008.53
2019-04-10T07:34:01.414Z,1008.56
2019-04-10T07:35:01.897Z,1008.52
2019-04-10T07:36:04.187Z,1008.57
2019-04-10T07:37:02.276Z,1008.56
2019-04-10T07:38:01.377Z,1008.57
2019-04-10T07:39:01.497Z,1008.57
2019-04-10T07:40:03.321Z,1008.60
2019-04-10T07:41:00.886Z,1008.54
2019-04-10T07:42:00.595Z,1008.61
2019-04-10T07:44:01.804Z,1008.65
2019-04-10T07:46:01.564Z,1008.63
2019-04-10T07:47:02.597Z,1008.66
2019-04-10T07:48:00.499Z,1008.66
2019-04-10T07:50:02.176Z,1008.70
2019-04-10T07:51:02.754Z,1008.65
2019-04-10T07:52:01.924Z,1008.70
2019-04-10T07:54:01.900Z,1008.69
2019-04-10T07:56:06.892Z,1008.69
2019-04-10T07:57:02.068Z,1008.62
2019-04-10T07:59:02.608Z,1008.66
2019-04-10T08:01:01.471Z,1008.64
2019-04-10T08:02:02.512Z,1008.66
2019-04-10T08:03:00.331Z,1008.73
2019-04-10T08:05:02.398Z,1008.70
2019-04-10T08:06:02.604Z,1008.67
2019-04-10T08:07:00.963Z,1008.60
2019-04-10T08:09:01.345Z,1008.77
2019-04-10T08:11:01.596Z,1008.63
2019-04-10T08:12:02.958Z,1008.72
2019-04-10T08:13:00.358Z,1008.68
2019-04-10T08:14:03.476Z,1008.75
2019-04-10T08:15:00.703Z,1008.71
2019-04-10T08:16:02.894Z,1008.71
2019-04-10T08:17:00.174Z,1008.71
2019-04-10T08:18:02.721Z,1008.70
2019-04-10T08:19:00.154Z,1008.73
2019-04-10T08:21:01.200Z,1008.70
2019-04-10T08:22:03.621Z,1008.74
2019-04-10T08:23:00.114Z,1008.73
2019-04-10T08:24:02.626Z,1008.75
2019-04-10T08:25:00.216Z,1008.79
2019-04-10T08:26:03.578Z,1008.76
2019-04-10T08:27:01.109Z,1008.66
2019-04-10T08:29:01.623Z,1008.76
2019-04-10T08:30:03.335Z,1008.73
2019-04-10T08:31:01.006Z,1008.73
2019-04-10T08:32:02.614Z,1008.74
2019-04-10T08:33:01.604Z,1008.79
2019-04-10T08:34:03.307Z,1008.78
2019-04-10T08:35:00.350Z,1008.74
2019-04-10T08:36:03.247Z,1008.73
2019-04-10T08:36:59.958Z,1008.76
2019-04-10T08:38:03.367Z,1008.72
2019-04-10T08:38:59.963Z,1008.76
2019-04-10T08:40:03.131Z,1008.75
2019-04-10T08:41:00.745Z,1008.80
2019-04-10T08:42:02.800Z,1008.72
2019-04-10T08:43:00.008Z,1008.82
2019-04-10T08:44:02.674Z,1008.79
2019-04-10T08:45:00.772Z,1008.81
2019-04-10T08:47:00.931Z,1008.82
2019-04-10T08:48:03.620Z,1008.81
2019-04-10T08:49:00.167Z,1008.86
2019-04-10T08:51:01.066Z,1008.82
2019-04-10T08:53:01.975Z,1008.81
2019-04-10T08:55:01.697Z,1008.88
2019-04-10T08:57:01.072Z,1008.89
2019-04-10T08:58:03.306Z,1008.87
2019-04-10T08:58:59.751Z,1008.89
2019-04-10T09:00:04.519Z,1008.89
2019-04-10T09:01:00.681Z,1008.88
2019-04-10T09:02:04.001Z,1008.85
2019-04-10T09:03:00.295Z,1008.90
2019-04-10T09:04:03.650Z,1008.96
2019-04-10T09:04:59.640Z,1008.91
2019-04-10T09:06:03.526Z,1008.91
2019-04-10T09:07:01.450Z,1008.91
2019-04-10T09:08:04.527Z,1008.95
2019-04-10T09:08:59.630Z,1008.96
2019-04-10T09:11:00.861Z,1008.90
2019-04-10T09:13:00.616Z,1008.94
2019-04-10T09:14:01.675Z,1008.90
2019-04-10T09:16:00.583Z,1008.91
2019-04-10T09:17:00.752Z,1008.95
2019-04-10T09:17:59.822Z,1008.94
2019-04-10T09:18:59.549Z,1008.90
2019-04-10T09:20:00.596Z,1008.89
2019-04-10T09:20:59.542Z,1008.94
2019-04-10T09:21:59.523Z,1008.88
2019-04-10T09:23:17.874Z,1008.84
2019-04-10T09:24:04.710Z,1008.89
2019-04-10T09:25:00.586Z,1008.89
2019-04-10T09:25:59.687Z,1008.89
2019-04-10T09:27:00.481Z,1008.85
2019-04-10T09:28:00.205Z,1008.87
2019-04-10T09:28:59.413Z,1008.92
2019-04-10T09:30:00.372Z,1008.91
2019-04-10T09:30:59.531Z,1008.90
2019-04-10T09:31:59.415Z,1008.94
2019-04-10T09:33:00.724Z,1008.88
2019-04-10T09:33:59.452Z,1008.90
2019-04-10T09:35:00.308Z,1008.87
2019-04-10T09:35:59.331Z,1008.90
2019-04-10T09:36:59.925Z,1008.96
2019-04-10T09:37:59.354Z,1008.99
2019-04-10T09:38:59.276Z,1008.89
2019-04-10T09:40:00.124Z,1008.99
2019-04-10T09:40:59.420Z,1008.97
2019-04-10T09:41:59.279Z,1008.91
2019-04-10T09:42:59.769Z,1008.92
2019-04-10T09:44:00.232Z,1008.93
2019-04-10T09:45:00.345Z,1008.88
2019-04-10T09:46:00.009Z,1008.91
2019-04-10T09:47:00.002Z,1008.90
2019-04-10T09:47:59.995Z,1008.90
2019-04-10T09:48:59.168Z,1009.01
2019-04-10T09:49:59.766Z,1008.92
2019-04-10T09:51:00.209Z,1008.94
2019-04-10T09:51:59.246Z,1008.89
2019-04-10T09:52:59.987Z,1008.95
2019-04-10T09:53:59.459Z,1008.86
2019-04-10T09:54:59.587Z,1008.93
2019-04-10T09:55:59.173Z,1008.97
2019-04-10T09:56:59.162Z,1008.86
2019-04-10T09:58:00.162Z,1008.90
2019-04-10T09:58:59.044Z,1008.88
2019-04-10T09:59:59.130Z,1008.80
2019-04-10T10:00:59.026Z,1008.88
2019-04-10T10:01:59.105Z,1008.83
2019-04-10T10:02:59.340Z,1008.77
2019-04-10T10:03:59.241Z,1008.82
2019-04-10T10:04:59.020Z,1008.89
2019-04-10T10:06:00.151Z,1008.78
2019-04-10T10:06:59.830Z,1008.73
2019-04-10T10:08:00.080Z,1008.80
2019-04-10T10:08:58.934Z,1008.86
2019-04-10T10:10:00.762Z,1008.91
2019-04-10T10:10:59.738Z,1008.89
2019-04-10T10:11:59.018Z,1008.84
2019-04-10T10:12:59.144Z,1008.81
2019-04-10T10:13:58.984Z,1008.82
2019-04-10T10:14:58.913Z,1008.83
2019-04-10T10:15:58.897Z,1008.88
2019-04-10T10:17:00.072Z,1008.80
2019-04-10T10:18:59.893Z,1008.81
2019-04-10T10:19:59.550Z,1008.85
2019-04-10T10:20:59.763Z,1008.87
2019-04-10T10:22:01.693Z,1008.90
2019-04-10T10:22:58.787Z,1008.87
2019-04-10T10:23:58.857Z,1008.85
2019-04-10T10:24:59.382Z,1008.82
2019-04-10T10:25:59.621Z,1008.82
2019-04-10T10:26:59.708Z,1008.86
2019-04-10T10:27:58.781Z,1008.84
2019-04-10T10:28:58.710Z,1008.86
2019-04-10T10:29:59.862Z,1008.88
2019-04-10T10:30:59.855Z,1008.90
2019-04-10T10:31:58.819Z,1008.88
2019-04-10T10:32:59.389Z,1008.91
2019-04-10T10:33:58.721Z,1008.92
2019-04-10T10:34:58.894Z,1009.00
2019-04-10T10:35:59.628Z,1008.99
2019-04-10T10:36:58.642Z,1009.09
2019-04-10T10:37:58.962Z,1008.95
2019-04-10T10:39:06.875Z,1008.93
2019-04-10T10:39:59.590Z,1008.98
2019-04-10T10:40:59.138Z,1008.94
2019-04-10T10:41:58.660Z,1008.89
2019-04-10T10:42:58.679Z,1008.91
2019-04-10T10:43:58.552Z,1008.87
2019-04-10T10:44:58.596Z,1008.88
2019-04-10T10:45:58.906Z,1008.89
2019-04-10T10:46:58.633Z,1008.88
2019-04-10T10:47:58.499Z,1008.81
2019-04-10T10:48:58.618Z,1008.98
2019-04-10T10:49:59.067Z,1008.91
2019-04-10T10:50:58.530Z,1008.89
2019-04-10T10:51:59.394Z,1008.97
2019-04-10T10:52:59.681Z,1009.02
2019-04-10T10:54:01.011Z,1008.95
2019-04-10T10:54:59.073Z,1008.90
2019-04-10T10:55:58.452Z,1008.98
2019-04-10T10:56:58.587Z,1008.95
2019-04-10T10:57:59.409Z,1008.98
2019-04-10T10:58:59.003Z,1008.98
2019-04-10T10:59:58.376Z,1008.97
2019-04-10T11:00:58.400Z,1008.86
2019-04-10T11:01:58.377Z,1008.83
2019-04-10T11:02:58.409Z,1009.00
2019-04-10T11:03:58.412Z,1008.94
2019-04-10T11:05:02.197Z,1008.99
2019-04-10T11:06:00.411Z,1008.96
2019-04-10T11:07:00.886Z,1008.99
2019-04-10T11:07:59.755Z,1008.94
2019-04-10T11:08:58.353Z,1008.98
2019-04-10T11:09:58.615Z,1009.06
2019-04-10T11:10:59.420Z,1009.01
2019-04-10T11:11:58.261Z,1009.02
2019-04-10T11:12:58.535Z,1009.00
2019-04-10T11:13:58.941Z,1009.06
2019-04-10T11:14:59.406Z,1008.95
2019-04-10T11:16:01.243Z,1009.01
2019-04-10T11:16:59.253Z,1009.00
2019-04-10T11:17:58.168Z,1009.03
2019-04-10T11:18:58.976Z,1008.99
2019-04-10T11:19:59.416Z,1009.01
2019-04-10T11:21:04.120Z,1009.14
2019-04-10T11:21:59.151Z,1008.97
2019-04-10T11:22:58.209Z,1008.93
2019-04-10T11:23:58.423Z,1009.03
2019-04-10T11:24:58.152Z,1008.93
2019-04-10T11:25:58.082Z,1008.87
2019-04-10T11:26:58.181Z,1008.87
2019-04-10T11:27:58.459Z,1008.91
2019-04-10T11:29:59.887Z,1008.94
2019-04-10T11:30:58.637Z,1008.99
2019-04-10T11:31:58.120Z,1009.02
2019-04-10T11:32:58.300Z,1009.06
2019-04-10T11:33:58.241Z,1009.01
2019-04-10T11:34:59.011Z,1009.00
2019-04-10T11:35:57.970Z,1009.03
2019-04-10T11:37:16.896Z,1009.05
2019-04-10T11:38:00.826Z,1009.04
2019-04-10T11:39:09.696Z,1008.97
2019-04-10T11:40:01.041Z,1009.05
2019-04-10T11:41:58.956Z,1008.95
2019-04-10T11:42:59.994Z,1008.99
2019-04-10T11:43:57.949Z,1009.04
2019-04-10T11:44:59.207Z,1009.06
2019-04-10T11:46:01.764Z,1009.04
2019-04-10T11:46:58.814Z,1009.05
2019-04-10T11:47:58.952Z,1009.12
2019-04-10T11:48:57.908Z,1009.09
2019-04-10T11:49:59.422Z,1009.12
2019-04-10T11:50:59.681Z,1009.09
2019-04-10T11:51:59.957Z,1009.06
2019-04-10T11:53:00.387Z,1009.03
2019-04-10T11:53:59.102Z,1009.10
2019-04-10T11:55:06.814Z,1009.10
2019-04-10T11:56:02.514Z,1009.10
2019-04-10T11:57:02.320Z,1009.09
2019-04-10T11:57:59.618Z,1009.14
2019-04-10T11:58:59.277Z,1009.11
2019-04-10T12:00:00.783Z,1009.13
2019-04-10T12:00:59.592Z,1009.10
2019-04-10T12:02:00.718Z,1009.14
2019-04-10T12:04:00.304Z,1009.14
2019-04-10T12:05:03.345Z,1009.15
2019-04-10T12:05:59.825Z,1009.14
2019-04-10T12:07:01.186Z,1009.09
2019-04-10T12:09:19.380Z,1009.18
2019-04-10T12:11:57.570Z,1009.15
2019-04-10T12:12:57.667Z,1009.12
2019-04-10T12:13:58.830Z,1009.08
2019-04-10T12:14:57.641Z,1009.11
2019-04-10T12:15:57.532Z,1009.04
2019-04-10T12:16:57.783Z,1009.05
2019-04-10T12:17:58.196Z,1009.16
2019-04-10T12:19:58.577Z,1009.12
2019-04-10T12:20:57.690Z,1009.19
2019-04-10T12:21:58.044Z,1009.16
2019-04-10T12:22:58.537Z,1009.20
2019-04-10T12:23:57.431Z,1009.28
2019-04-10T12:24:58.484Z,1009.26
2019-04-10T12:25:57.417Z,1009.29
2019-04-10T12:26:58.349Z,1009.28
2019-04-10T12:27:57.811Z,1009.29
2019-04-10T12:28:58.249Z,1009.27
2019-04-10T12:29:57.404Z,1009.16
2019-04-10T12:30:57.542Z,1009.20
2019-04-10T12:31:58.531Z,1009.21
2019-04-10T12:32:57.415Z,1009.26
2019-04-10T12:33:57.328Z,1009.21
2019-04-10T12:34:58.226Z,1009.27
2019-04-10T12:35:58.231Z,1009.22